sensor_id;sensor_type;location;lat;lon;timestamp;temperature;humidity
42755;DHT22;28407;51.830;5.684;2023-04-06T00:00:21;7.60;57.50
42755;DHT22;28407;51.830;5.684;2023-04-06T00:02:22;7.60;57.50
42755;DHT22;28407;51.830;5.684;2023-04-06T00:04:23;7.50;57.50
42755;DHT22;28407;51.830;5.684;2023-04-06T00:06:24;7.50;58.10
42755;DHT22;28407;51.830;5.684;2023-04-06T00:08:25;7.50;57.60
42755;DHT22;28407;51.830;5.684;2023-04-06T00:10:26;7.50;57.60
42755;DHT22;28407;51.830;5.684;2023-04-06T00:12:27;7.50;57.80
42755;DHT22;28407;51.830;5.684;2023-04-06T00:14:27;7.50;57.60
42755;DHT22;28407;51.830;5.684;2023-04-06T00:16:28;7.50;57.60
42755;DHT22;28407;51.830;5.684;2023-04-06T00:18:28;7.50;57.70
42755;DHT22;28407;51.830;5.684;2023-04-06T00:20:29;7.50;57.70
42755;DHT22;28407;51.830;5.684;2023-04-06T00:22:30;7.50;57.70
42755;DHT22;28407;51.830;5.684;2023-04-06T00:24:31;7.40;57.70
42755;DHT22;28407;51.830;5.684;2023-04-06T00:26:31;7.40;57.70
42755;DHT22;28407;51.830;5.684;2023-04-06T00:28:32;7.40;57.80
42755;DHT22;28407;51.830;5.684;2023-04-06T00:30:34;7.50;57.80
42755;DHT22;28407;51.830;5.684;2023-04-06T00:32:35;7.40;57.80
42755;DHT22;28407;51.830;5.684;2023-04-06T00:34:36;7.50;57.80
42755;DHT22;28407;51.830;5.684;2023-04-06T00:36:37;7.50;57.90
42755;DHT22;28407;51.830;5.684;2023-04-06T00:38:37;7.40;57.80
42755;DHT22;28407;51.830;5.684;2023-04-06T00:40:38;7.40;57.90
42755;DHT22;28407;51.830;5.684;2023-04-06T00:42:41;7.50;58.00
42755;DHT22;28407;51.830;5.684;2023-04-06T00:44:41;7.40;57.90
42755;DHT22;28407;51.830;5.684;2023-04-06T00:46:42;7.40;58.00
42755;DHT22;28407;51.830;5.684;2023-04-06T00:48:43;7.40;58.00
42755;DHT22;28407;51.830;5.684;2023-04-06T00:50:44;7.40;58.10
42755;DHT22;28407;51.830;5.684;2023-04-06T00:52:46;7.40;58.10
42755;DHT22;28407;51.830;5.684;2023-04-06T00:54:46;7.40;58.10
42755;DHT22;28407;51.830;5.684;2023-04-06T00:56:48;7.40;58.10
42755;DHT22;28407;51.830;5.684;2023-04-06T00:58:50;7.30;58.10
42755;DHT22;28407;51.830;5.684;2023-04-06T01:00:50;7.40;58.20
42755;DHT22;28407;51.830;5.684;2023-04-06T01:02:53;7.40;58.20
42755;DHT22;28407;51.830;5.684;2023-04-06T01:04:57;7.30;58.20
42755;DHT22;28407;51.830;5.684;2023-04-06T01:07:18;7.30;58.30
42755;DHT22;28407;51.830;5.684;2023-04-06T01:09:32;7.30;58.30
42755;DHT22;28407;51.830;5.684;2023-04-06T01:11:37;7.30;58.40
42755;DHT22;28407;51.830;5.684;2023-04-06T01:13:40;7.30;58.40
42755;DHT22;28407;51.830;5.684;2023-04-06T01:15:48;7.30;58.40
42755;DHT22;28407;51.830;5.684;2023-04-06T01:17:55;7.20;58.40
42755;DHT22;28407;51.830;5.684;2023-04-06T01:19:55;7.20;58.50
42755;DHT22;28407;51.830;5.684;2023-04-06T01:22:01;7.20;58.50
42755;DHT22;28407;51.830;5.684;2023-04-06T01:24:05;7.20;58.60
42755;DHT22;28407;51.830;5.684;2023-04-06T01:26:17;7.20;58.60
42755;DHT22;28407;51.830;5.684;2023-04-06T01:28:18;7.20;58.60
42755;DHT22;28407;51.830;5.684;2023-04-06T01:30:30;7.20;58.60
42755;DHT22;28407;51.830;5.684;2023-04-06T01:32:34;7.20;58.60
42755;DHT22;28407;51.830;5.684;2023-04-06T01:34:35;7.20;58.50
42755;DHT22;28407;51.830;5.684;2023-04-06T01:36:38;7.20;58.40
42755;DHT22;28407;51.830;5.684;2023-04-06T01:38:53;7.20;58.40
42755;DHT22;28407;51.830;5.684;2023-04-06T01:40:58;7.20;58.30
42755;DHT22;28407;51.830;5.684;2023-04-06T01:43:02;7.20;58.20
42755;DHT22;28407;51.830;5.684;2023-04-06T01:45:09;7.20;58.20
42755;DHT22;28407;51.830;5.684;2023-04-06T01:47:11;7.20;58.10
42755;DHT22;28407;51.830;5.684;2023-04-06T01:49:12;7.30;58.10
42755;DHT22;28407;51.830;5.684;2023-04-06T01:51:15;7.30;58.10
42755;DHT22;28407;51.830;5.684;2023-04-06T01:53:23;7.30;58.00
42755;DHT22;28407;51.830;5.684;2023-04-06T01:55:24;7.30;58.00
42755;DHT22;28407;51.830;5.684;2023-04-06T01:57:43;7.30;58.00
42755;DHT22;28407;51.830;5.684;2023-04-06T02:00:03;7.30;58.00
42755;DHT22;28407;51.830;5.684;2023-04-06T02:02:21;7.30;58.00
42755;DHT22;28407;51.830;5.684;2023-04-06T02:04:31;7.20;58.00
42755;DHT22;28407;51.830;5.684;2023-04-06T02:06:41;7.20;58.00
42755;DHT22;28407;51.830;5.684;2023-04-06T02:08:44;7.20;58.00
42755;DHT22;28407;51.830;5.684;2023-04-06T02:10:44;7.20;58.00
42755;DHT22;28407;51.830;5.684;2023-04-06T02:12:54;7.20;58.00
42755;DHT22;28407;51.830;5.684;2023-04-06T02:14:59;7.20;58.00
42755;DHT22;28407;51.830;5.684;2023-04-06T02:17:00;7.20;58.10
42755;DHT22;28407;51.830;5.684;2023-04-06T02:19:01;7.20;58.10
42755;DHT22;28407;51.830;5.684;2023-04-06T02:21:01;7.20;58.10
42755;DHT22;28407;51.830;5.684;2023-04-06T02:23:03;7.20;58.10
42755;DHT22;28407;51.830;5.684;2023-04-06T02:25:03;7.20;58.10
42755;DHT22;28407;51.830;5.684;2023-04-06T02:27:04;7.20;58.10
42755;DHT22;28407;51.830;5.684;2023-04-06T02:29:05;7.20;58.00
42755;DHT22;28407;51.830;5.684;2023-04-06T02:31:08;7.20;58.00
42755;DHT22;28407;51.830;5.684;2023-04-06T02:33:08;7.30;58.00
42755;DHT22;28407;51.830;5.684;2023-04-06T02:35:18;7.20;58.10
42755;DHT22;28407;51.830;5.684;2023-04-06T02:37:22;7.20;58.20
42755;DHT22;28407;51.830;5.684;2023-04-06T02:39:24;7.20;58.20
42755;DHT22;28407;51.830;5.684;2023-04-06T02:41:25;7.20;58.30
42755;DHT22;28407;51.830;5.684;2023-04-06T02:43:27;7.20;58.30
42755;DHT22;28407;51.830;5.684;2023-04-06T02:45:35;7.20;58.30
42755;DHT22;28407;51.830;5.684;2023-04-06T02:47:37;7.20;58.30
42755;DHT22;28407;51.830;5.684;2023-04-06T02:49:38;7.20;58.30
42755;DHT22;28407;51.830;5.684;2023-04-06T02:51:38;7.20;58.40
42755;DHT22;28407;51.830;5.684;2023-04-06T02:53:58;7.20;58.40
42755;DHT22;28407;51.830;5.684;2023-04-06T02:55:58;7.20;58.40
42755;DHT22;28407;51.830;5.684;2023-04-06T02:58:06;7.20;58.40
42755;DHT22;28407;51.830;5.684;2023-04-06T03:00:16;7.20;58.40
42755;DHT22;28407;51.830;5.684;2023-04-06T03:02:17;7.20;58.30
42755;DHT22;28407;51.830;5.684;2023-04-06T03:04:18;7.20;58.30
42755;DHT22;28407;51.830;5.684;2023-04-06T03:06:20;7.30;58.20
42755;DHT22;28407;51.830;5.684;2023-04-06T03:08:22;7.30;58.20
42755;DHT22;28407;51.830;5.684;2023-04-06T03:10:24;7.30;58.20
42755;DHT22;28407;51.830;5.684;2023-04-06T03:12:25;7.20;58.10
42755;DHT22;28407;51.830;5.684;2023-04-06T03:14:48;7.30;58.10
42755;DHT22;28407;51.830;5.684;2023-04-06T03:16:49;7.30;58.10
42755;DHT22;28407;51.830;5.684;2023-04-06T03:18:54;7.30;58.00
42755;DHT22;28407;51.830;5.684;2023-04-06T03:20:55;7.30;58.00
42755;DHT22;28407;51.830;5.684;2023-04-06T03:23:00;7.30;58.00
42755;DHT22;28407;51.830;5.684;2023-04-06T03:25:05;7.30;58.00
42755;DHT22;28407;51.830;5.684;2023-04-06T03:27:06;7.30;58.00
42755;DHT22;28407;51.830;5.684;2023-04-06T03:29:08;7.30;58.00
42755;DHT22;28407;51.830;5.684;2023-04-06T03:31:09;7.30;58.00
42755;DHT22;28407;51.830;5.684;2023-04-06T03:33:45;7.30;58.00
42755;DHT22;28407;51.830;5.684;2023-04-06T03:35:53;7.30;58.00
42755;DHT22;28407;51.830;5.684;2023-04-06T03:37:55;7.30;58.00
42755;DHT22;28407;51.830;5.684;2023-04-06T03:39:56;7.30;58.00
42755;DHT22;28407;51.830;5.684;2023-04-06T03:41:58;7.30;58.00
42755;DHT22;28407;51.830;5.684;2023-04-06T03:44:10;7.30;58.00
42755;DHT22;28407;51.830;5.684;2023-04-06T03:46:11;7.30;58.00
42755;DHT22;28407;51.830;5.684;2023-04-06T03:48:12;7.30;58.00
42755;DHT22;28407;51.830;5.684;2023-04-06T03:50:12;7.30;58.00
42755;DHT22;28407;51.830;5.684;2023-04-06T03:52:13;7.30;58.00
42755;DHT22;28407;51.830;5.684;2023-04-06T03:54:14;7.30;58.00
42755;DHT22;28407;51.830;5.684;2023-04-06T03:56:14;7.30;58.10
42755;DHT22;28407;51.830;5.684;2023-04-06T03:58:15;7.30;58.20
42755;DHT22;28407;51.830;5.684;2023-04-06T04:00:16;7.30;58.30
42755;DHT22;28407;51.830;5.684;2023-04-06T04:02:16;7.30;58.30
42755;DHT22;28407;51.830;5.684;2023-04-06T04:04:17;7.30;58.40
42755;DHT22;28407;51.830;5.684;2023-04-06T04:06:17;7.30;58.40
42755;DHT22;28407;51.830;5.684;2023-04-06T04:08:18;7.30;58.40
42755;DHT22;28407;51.830;5.684;2023-04-06T04:10:19;7.30;58.40
42755;DHT22;28407;51.830;5.684;2023-04-06T04:12:20;7.30;58.40
42755;DHT22;28407;51.830;5.684;2023-04-06T04:14:21;7.30;58.50
42755;DHT22;28407;51.830;5.684;2023-04-06T04:16:21;7.30;58.60
42755;DHT22;28407;51.830;5.684;2023-04-06T04:18:22;7.30;58.60
42755;DHT22;28407;51.830;5.684;2023-04-06T04:20:23;7.30;58.70
42755;DHT22;28407;51.830;5.684;2023-04-06T04:22:24;7.20;58.60
42755;DHT22;28407;51.830;5.684;2023-04-06T04:24:24;7.20;58.70
42755;DHT22;28407;51.830;5.684;2023-04-06T04:26:25;7.20;59.30
42755;DHT22;28407;51.830;5.684;2023-04-06T04:28:25;7.20;58.70
42755;DHT22;28407;51.830;5.684;2023-04-06T04:30:29;7.20;58.70
42755;DHT22;28407;51.830;5.684;2023-04-06T04:32:29;7.20;58.70
42755;DHT22;28407;51.830;5.684;2023-04-06T04:34:32;7.20;58.70
42755;DHT22;28407;51.830;5.684;2023-04-06T04:36:33;7.20;58.80
42755;DHT22;28407;51.830;5.684;2023-04-06T04:38:37;7.10;58.80
42755;DHT22;28407;51.830;5.684;2023-04-06T04:40:38;7.20;58.90
42755;DHT22;28407;51.830;5.684;2023-04-06T04:42:43;7.10;58.90
42755;DHT22;28407;51.830;5.684;2023-04-06T04:44:49;7.10;58.90
42755;DHT22;28407;51.830;5.684;2023-04-06T04:46:59;7.20;59.00
42755;DHT22;28407;51.830;5.684;2023-04-06T04:49:10;7.10;59.00
42755;DHT22;28407;51.830;5.684;2023-04-06T04:51:11;7.20;59.00
42755;DHT22;28407;51.830;5.684;2023-04-06T04:53:40;7.10;59.00
42755;DHT22;28407;51.830;5.684;2023-04-06T04:55:50;7.10;59.00
42755;DHT22;28407;51.830;5.684;2023-04-06T04:57:52;7.10;59.00
42755;DHT22;28407;51.830;5.684;2023-04-06T04:59:57;7.10;59.00
42755;DHT22;28407;51.830;5.684;2023-04-06T05:01:58;7.10;59.10
42755;DHT22;28407;51.830;5.684;2023-04-06T05:04:07;7.10;59.10
42755;DHT22;28407;51.830;5.684;2023-04-06T05:06:08;7.10;59.20
42755;DHT22;28407;51.830;5.684;2023-04-06T05:08:13;7.10;59.20
42755;DHT22;28407;51.830;5.684;2023-04-06T05:10:19;7.10;59.20
42755;DHT22;28407;51.830;5.684;2023-04-06T05:12:27;7.00;59.20
42755;DHT22;28407;51.830;5.684;2023-04-06T05:14:39;7.00;59.20
42755;DHT22;28407;51.830;5.684;2023-04-06T05:16:46;7.00;59.20
42755;DHT22;28407;51.830;5.684;2023-04-06T05:18:48;7.00;59.30
42755;DHT22;28407;51.830;5.684;2023-04-06T05:20:49;7.00;59.30
42755;DHT22;28407;51.830;5.684;2023-04-06T05:22:51;7.00;59.30
42755;DHT22;28407;51.830;5.684;2023-04-06T05:24:52;7.00;59.40
42755;DHT22;28407;51.830;5.684;2023-04-06T05:26:53;7.00;59.50
42755;DHT22;28407;51.830;5.684;2023-04-06T05:28:57;7.00;59.50
42755;DHT22;28407;51.830;5.684;2023-04-06T05:30:59;7.00;59.60
42755;DHT22;28407;51.830;5.684;2023-04-06T05:33:04;7.00;59.60
42755;DHT22;28407;51.830;5.684;2023-04-06T05:35:18;7.00;59.60
42755;DHT22;28407;51.830;5.684;2023-04-06T05:37:23;7.00;59.60
42755;DHT22;28407;51.830;5.684;2023-04-06T05:39:23;7.00;59.70
42755;DHT22;28407;51.830;5.684;2023-04-06T05:41:26;7.00;59.70
42755;DHT22;28407;51.830;5.684;2023-04-06T05:43:26;7.10;59.70
42755;DHT22;28407;51.830;5.684;2023-04-06T05:45:30;7.10;59.80
42755;DHT22;28407;51.830;5.684;2023-04-06T05:47:31;7.10;59.70
42755;DHT22;28407;51.830;5.684;2023-04-06T05:49:41;7.10;59.70
42755;DHT22;28407;51.830;5.684;2023-04-06T05:51:47;7.10;59.70
42755;DHT22;28407;51.830;5.684;2023-04-06T05:53:48;7.10;59.70
42755;DHT22;28407;51.830;5.684;2023-04-06T05:55:48;7.10;59.80
42755;DHT22;28407;51.830;5.684;2023-04-06T05:57:52;7.10;59.90
42755;DHT22;28407;51.830;5.684;2023-04-06T05:59:54;7.10;59.90
42755;DHT22;28407;51.830;5.684;2023-04-06T06:01:58;7.10;59.90
42755;DHT22;28407;51.830;5.684;2023-04-06T06:04:00;7.10;60.50
42755;DHT22;28407;51.830;5.684;2023-04-06T06:06:04;7.20;60.00
42755;DHT22;28407;51.830;5.684;2023-04-06T06:08:14;7.20;59.90
42755;DHT22;28407;51.830;5.684;2023-04-06T06:10:15;7.20;59.90
42755;DHT22;28407;51.830;5.684;2023-04-06T06:12:16;7.20;60.00
42755;DHT22;28407;51.830;5.684;2023-04-06T06:14:16;7.30;60.00
42755;DHT22;28407;51.830;5.684;2023-04-06T06:16:18;7.30;60.00
42755;DHT22;28407;51.830;5.684;2023-04-06T06:18:21;7.40;60.00
42755;DHT22;28407;51.830;5.684;2023-04-06T06:20:25;7.40;60.00
42755;DHT22;28407;51.830;5.684;2023-04-06T06:22:26;7.40;60.00
42755;DHT22;28407;51.830;5.684;2023-04-06T06:24:26;7.40;60.10
42755;DHT22;28407;51.830;5.684;2023-04-06T06:26:27;7.40;60.10
42755;DHT22;28407;51.830;5.684;2023-04-06T06:28:27;7.30;60.20
42755;DHT22;28407;51.830;5.684;2023-04-06T06:30:28;7.40;60.30
42755;DHT22;28407;51.830;5.684;2023-04-06T06:32:29;7.40;60.30
42755;DHT22;28407;51.830;5.684;2023-04-06T06:34:29;7.40;60.40
42755;DHT22;28407;51.830;5.684;2023-04-06T06:36:32;7.40;60.40
42755;DHT22;28407;51.830;5.684;2023-04-06T06:38:33;7.40;60.40
42755;DHT22;28407;51.830;5.684;2023-04-06T06:40:34;7.40;60.50
42755;DHT22;28407;51.830;5.684;2023-04-06T06:42:34;7.50;60.60
42755;DHT22;28407;51.830;5.684;2023-04-06T06:44:42;7.50;60.60
42755;DHT22;28407;51.830;5.684;2023-04-06T06:46:43;7.50;60.60
42755;DHT22;28407;51.830;5.684;2023-04-06T06:48:44;7.60;60.50
42755;DHT22;28407;51.830;5.684;2023-04-06T06:50:44;7.60;60.50
42755;DHT22;28407;51.830;5.684;2023-04-06T06:52:47;7.60;60.50
42755;DHT22;28407;51.830;5.684;2023-04-06T06:54:48;7.60;60.50
42755;DHT22;28407;51.830;5.684;2023-04-06T06:56:49;7.70;60.60
42755;DHT22;28407;51.830;5.684;2023-04-06T06:58:50;7.70;60.50
42755;DHT22;28407;51.830;5.684;2023-04-06T07:00:50;7.80;60.50
42755;DHT22;28407;51.830;5.684;2023-04-06T07:02:51;7.80;60.40
42755;DHT22;28407;51.830;5.684;2023-04-06T07:04:52;7.80;60.60
42755;DHT22;28407;51.830;5.684;2023-04-06T07:06:52;7.80;61.00
42755;DHT22;28407;51.830;5.684;2023-04-06T07:08:53;7.80;60.60
42755;DHT22;28407;51.830;5.684;2023-04-06T07:10:54;7.80;60.70
42755;DHT22;28407;51.830;5.684;2023-04-06T07:12:56;7.80;60.70
42755;DHT22;28407;51.830;5.684;2023-04-06T07:14:57;7.80;60.80
42755;DHT22;28407;51.830;5.684;2023-04-06T07:16:57;7.80;60.80
42755;DHT22;28407;51.830;5.684;2023-04-06T07:18:58;7.90;60.90
42755;DHT22;28407;51.830;5.684;2023-04-06T07:20:58;7.90;60.90
42755;DHT22;28407;51.830;5.684;2023-04-06T07:22:59;7.90;60.80
42755;DHT22;28407;51.830;5.684;2023-04-06T07:25:00;8.00;60.90
42755;DHT22;28407;51.830;5.684;2023-04-06T07:27:00;7.90;60.80
42755;DHT22;28407;51.830;5.684;2023-04-06T07:29:02;8.00;60.90
42755;DHT22;28407;51.830;5.684;2023-04-06T07:31:03;8.00;60.90
42755;DHT22;28407;51.830;5.684;2023-04-06T07:33:03;8.10;61.00
42755;DHT22;28407;51.830;5.684;2023-04-06T07:35:06;8.10;60.90
42755;DHT22;28407;51.830;5.684;2023-04-06T07:37:07;8.10;60.80
42755;DHT22;28407;51.830;5.684;2023-04-06T07:39:08;8.10;60.80
42755;DHT22;28407;51.830;5.684;2023-04-06T07:41:09;8.10;60.80
42755;DHT22;28407;51.830;5.684;2023-04-06T07:43:10;8.20;60.80
42755;DHT22;28407;51.830;5.684;2023-04-06T07:45:12;8.20;60.80
42755;DHT22;28407;51.830;5.684;2023-04-06T07:47:13;8.20;60.80
42755;DHT22;28407;51.830;5.684;2023-04-06T07:49:13;8.20;60.80
42755;DHT22;28407;51.830;5.684;2023-04-06T07:51:14;8.20;60.70
42755;DHT22;28407;51.830;5.684;2023-04-06T07:53:17;8.20;60.80
42755;DHT22;28407;51.830;5.684;2023-04-06T07:55:19;8.20;60.80
42755;DHT22;28407;51.830;5.684;2023-04-06T07:57:20;8.30;60.80
42755;DHT22;28407;51.830;5.684;2023-04-06T07:59:20;8.30;60.80
42755;DHT22;28407;51.830;5.684;2023-04-06T08:01:21;8.30;60.80
42755;DHT22;28407;51.830;5.684;2023-04-06T08:03:22;8.40;60.80
42755;DHT22;28407;51.830;5.684;2023-04-06T08:05:25;8.40;60.80
42755;DHT22;28407;51.830;5.684;2023-04-06T08:07:26;8.50;60.80
42755;DHT22;28407;51.830;5.684;2023-04-06T08:09:27;8.50;60.70
42755;DHT22;28407;51.830;5.684;2023-04-06T08:11:28;8.50;60.60
42755;DHT22;28407;51.830;5.684;2023-04-06T08:13:28;8.60;60.70
42755;DHT22;28407;51.830;5.684;2023-04-06T08:15:29;8.60;60.70
42755;DHT22;28407;51.830;5.684;2023-04-06T08:17:31;8.60;60.70
42755;DHT22;28407;51.830;5.684;2023-04-06T08:19:31;8.60;60.60
42755;DHT22;28407;51.830;5.684;2023-04-06T08:21:33;8.70;60.70
42755;DHT22;28407;51.830;5.684;2023-04-06T08:23:33;8.70;60.70
42755;DHT22;28407;51.830;5.684;2023-04-06T08:25:35;8.70;60.80
42755;DHT22;28407;51.830;5.684;2023-04-06T08:27:36;8.70;60.70
42755;DHT22;28407;51.830;5.684;2023-04-06T08:29:36;8.70;60.70
42755;DHT22;28407;51.830;5.684;2023-04-06T08:31:37;8.70;60.60
42755;DHT22;28407;51.830;5.684;2023-04-06T08:33:37;8.80;60.70
42755;DHT22;28407;51.830;5.684;2023-04-06T08:35:39;8.80;60.60
42755;DHT22;28407;51.830;5.684;2023-04-06T08:37:40;8.80;60.50
42755;DHT22;28407;51.830;5.684;2023-04-06T08:39:41;8.80;60.50
42755;DHT22;28407;51.830;5.684;2023-04-06T08:41:42;8.90;60.40
42755;DHT22;28407;51.830;5.684;2023-04-06T08:43:47;8.90;60.30
42755;DHT22;28407;51.830;5.684;2023-04-06T08:45:48;9.00;60.40
42755;DHT22;28407;51.830;5.684;2023-04-06T08:47:50;9.00;60.30
42755;DHT22;28407;51.830;5.684;2023-04-06T08:49:53;9.00;60.30
42755;DHT22;28407;51.830;5.684;2023-04-06T08:51:55;9.00;60.30
42755;DHT22;28407;51.830;5.684;2023-04-06T08:53:59;9.10;60.30
42755;DHT22;28407;51.830;5.684;2023-04-06T08:56:00;9.10;60.20
42755;DHT22;28407;51.830;5.684;2023-04-06T08:58:01;9.20;60.30
42755;DHT22;28407;51.830;5.684;2023-04-06T09:00:02;9.20;60.20
42755;DHT22;28407;51.830;5.684;2023-04-06T09:02:04;9.20;60.20
42755;DHT22;28407;51.830;5.684;2023-04-06T09:04:08;9.30;60.40
42755;DHT22;28407;51.830;5.684;2023-04-06T09:06:11;9.30;60.40
42755;DHT22;28407;51.830;5.684;2023-04-06T09:08:13;9.40;60.50
42755;DHT22;28407;51.830;5.684;2023-04-06T09:10:15;9.40;60.50
42755;DHT22;28407;51.830;5.684;2023-04-06T09:12:27;9.40;60.60
42755;DHT22;28407;51.830;5.684;2023-04-06T09:14:38;9.40;60.60
42755;DHT22;28407;51.830;5.684;2023-04-06T09:16:44;9.40;60.70
42755;DHT22;28407;51.830;5.684;2023-04-06T09:18:45;9.50;60.80
42755;DHT22;28407;51.830;5.684;2023-04-06T09:20:57;9.50;60.80
42755;DHT22;28407;51.830;5.684;2023-04-06T09:22:57;9.50;60.80
42755;DHT22;28407;51.830;5.684;2023-04-06T09:24:58;9.50;60.70
42755;DHT22;28407;51.830;5.684;2023-04-06T09:26:58;9.60;60.80
42755;DHT22;28407;51.830;5.684;2023-04-06T09:28:59;9.60;60.90
42755;DHT22;28407;51.830;5.684;2023-04-06T09:31:01;9.70;61.50
42755;DHT22;28407;51.830;5.684;2023-04-06T09:33:02;9.70;60.70
42755;DHT22;28407;51.830;5.684;2023-04-06T09:35:07;9.70;60.70
42755;DHT22;28407;51.830;5.684;2023-04-06T09:37:14;9.80;60.60
42755;DHT22;28407;51.830;5.684;2023-04-06T09:39:15;9.80;60.60
42755;DHT22;28407;51.830;5.684;2023-04-06T09:41:40;9.80;60.50
42755;DHT22;28407;51.830;5.684;2023-04-06T09:43:41;9.90;60.60
42755;DHT22;28407;51.830;5.684;2023-04-06T09:45:42;9.90;60.50
42755;DHT22;28407;51.830;5.684;2023-04-06T09:47:44;9.90;60.50
42755;DHT22;28407;51.830;5.684;2023-04-06T09:49:47;9.90;60.50
42755;DHT22;28407;51.830;5.684;2023-04-06T09:51:58;9.90;60.50
42755;DHT22;28407;51.830;5.684;2023-04-06T09:54:00;10.00;60.50
42755;DHT22;28407;51.830;5.684;2023-04-06T09:56:05;10.00;60.50
42755;DHT22;28407;51.830;5.684;2023-04-06T09:58:13;10.00;60.40
42755;DHT22;28407;51.830;5.684;2023-04-06T10:00:17;10.00;60.30
42755;DHT22;28407;51.830;5.684;2023-04-06T10:04:54;10.10;60.40
42755;DHT22;28407;51.830;5.684;2023-04-06T10:06:57;10.20;60.40
42755;DHT22;28407;51.830;5.684;2023-04-06T10:08:57;10.20;60.30
42755;DHT22;28407;51.830;5.684;2023-04-06T10:10:59;10.20;60.40
42755;DHT22;28407;51.830;5.684;2023-04-06T10:13:01;10.20;60.40
42755;DHT22;28407;51.830;5.684;2023-04-06T10:15:02;10.20;60.30
42755;DHT22;28407;51.830;5.684;2023-04-06T10:17:04;10.30;60.30
42755;DHT22;28407;51.830;5.684;2023-04-06T10:19:16;10.30;60.30
42755;DHT22;28407;51.830;5.684;2023-04-06T10:21:21;10.40;60.40
42755;DHT22;28407;51.830;5.684;2023-04-06T10:23:33;10.40;60.30
42755;DHT22;28407;51.830;5.684;2023-04-06T10:25:35;10.50;60.30
42755;DHT22;28407;51.830;5.684;2023-04-06T10:27:37;10.50;60.20
42755;DHT22;28407;51.830;5.684;2023-04-06T10:29:44;10.50;60.20
42755;DHT22;28407;51.830;5.684;2023-04-06T10:31:48;10.60;60.10
42755;DHT22;28407;51.830;5.684;2023-04-06T10:34:02;10.60;60.10
42755;DHT22;28407;51.830;5.684;2023-04-06T10:36:13;10.70;60.40
42755;DHT22;28407;51.830;5.684;2023-04-06T10:38:14;10.70;60.40
42755;DHT22;28407;51.830;5.684;2023-04-06T10:40:25;10.70;60.40
42755;DHT22;28407;51.830;5.684;2023-04-06T10:42:36;10.80;60.50
42755;DHT22;28407;51.830;5.684;2023-04-06T10:44:42;10.80;60.50
42755;DHT22;28407;51.830;5.684;2023-04-06T10:46:53;10.80;60.50
42755;DHT22;28407;51.830;5.684;2023-04-06T10:48:54;10.90;60.60
42755;DHT22;28407;51.830;5.684;2023-04-06T10:50:56;10.90;60.70
42755;DHT22;28407;51.830;5.684;2023-04-06T10:53:01;10.90;60.80
42755;DHT22;28407;51.830;5.684;2023-04-06T10:55:02;10.90;60.90
42755;DHT22;28407;51.830;5.684;2023-04-06T10:57:02;11.00;61.10
42755;DHT22;28407;51.830;5.684;2023-04-06T10:59:03;11.00;61.30
42755;DHT22;28407;51.830;5.684;2023-04-06T11:01:04;11.00;61.80
42755;DHT22;28407;51.830;5.684;2023-04-06T11:03:04;10.90;61.90
42755;DHT22;28407;51.830;5.684;2023-04-06T11:05:05;10.90;62.20
42755;DHT22;28407;51.830;5.684;2023-04-06T11:07:06;10.90;62.40
42755;DHT22;28407;51.830;5.684;2023-04-06T11:09:08;10.90;62.60
42755;DHT22;28407;51.830;5.684;2023-04-06T11:11:11;10.90;62.90
42755;DHT22;28407;51.830;5.684;2023-04-06T11:13:15;10.80;63.10
42755;DHT22;28407;51.830;5.684;2023-04-06T11:15:16;10.80;63.30
42755;DHT22;28407;51.830;5.684;2023-04-06T11:17:17;10.80;63.60
42755;DHT22;28407;51.830;5.684;2023-04-06T11:19:17;10.80;64.00
42755;DHT22;28407;51.830;5.684;2023-04-06T11:21:19;10.80;64.20
42755;DHT22;28407;51.830;5.684;2023-04-06T11:23:24;10.70;64.40
42755;DHT22;28407;51.830;5.684;2023-04-06T11:25:25;10.70;64.80
42755;DHT22;28407;51.830;5.684;2023-04-06T11:27:28;10.70;65.00
42755;DHT22;28407;51.830;5.684;2023-04-06T11:29:31;10.70;65.40
42755;DHT22;28407;51.830;5.684;2023-04-06T11:31:38;10.60;65.60
42755;DHT22;28407;51.830;5.684;2023-04-06T11:33:39;10.60;66.00
42755;DHT22;28407;51.830;5.684;2023-04-06T11:35:40;10.60;66.30
42755;DHT22;28407;51.830;5.684;2023-04-06T11:37:43;10.60;66.50
42755;DHT22;28407;51.830;5.684;2023-04-06T11:39:48;10.50;66.90
42755;DHT22;28407;51.830;5.684;2023-04-06T11:41:58;10.50;67.70
42755;DHT22;28407;51.830;5.684;2023-04-06T11:44:01;10.50;67.30
42755;DHT22;28407;51.830;5.684;2023-04-06T11:46:05;10.50;67.50
42755;DHT22;28407;51.830;5.684;2023-04-06T11:48:18;10.50;67.70
42755;DHT22;28407;51.830;5.684;2023-04-06T11:50:19;10.40;67.80
42755;DHT22;28407;51.830;5.684;2023-04-06T11:52:23;10.40;68.10
42755;DHT22;28407;51.830;5.684;2023-04-06T11:54:35;10.40;68.00
42755;DHT22;28407;51.830;5.684;2023-04-06T11:56:35;10.30;68.10
42755;DHT22;28407;51.830;5.684;2023-04-06T11:58:36;10.30;68.30
42755;DHT22;28407;51.830;5.684;2023-04-06T12:00:38;10.20;68.40
42755;DHT22;28407;51.830;5.684;2023-04-06T12:02:39;10.20;68.70
42755;DHT22;28407;51.830;5.684;2023-04-06T12:04:40;10.20;69.00
42755;DHT22;28407;51.830;5.684;2023-04-06T12:06:40;10.10;69.10
42755;DHT22;28407;51.830;5.684;2023-04-06T12:08:41;10.00;69.20
42755;DHT22;28407;51.830;5.684;2023-04-06T12:10:41;10.00;69.40
42755;DHT22;28407;51.830;5.684;2023-04-06T12:12:42;10.00;69.60
42755;DHT22;28407;51.830;5.684;2023-04-06T12:14:43;10.10;69.80
42755;DHT22;28407;51.830;5.684;2023-04-06T12:16:44;10.00;69.90
42755;DHT22;28407;51.830;5.684;2023-04-06T12:18:44;10.00;70.00
42755;DHT22;28407;51.830;5.684;2023-04-06T12:20:45;10.00;70.10
42755;DHT22;28407;51.830;5.684;2023-04-06T12:22:46;10.00;70.30
42755;DHT22;28407;51.830;5.684;2023-04-06T12:24:46;9.90;70.50
42755;DHT22;28407;51.830;5.684;2023-04-06T12:26:47;9.90;70.70
42755;DHT22;28407;51.830;5.684;2023-04-06T12:28:48;9.90;70.90
42755;DHT22;28407;51.830;5.684;2023-04-06T12:30:48;9.80;71.20
42755;DHT22;28407;51.830;5.684;2023-04-06T12:32:50;9.80;71.40
42755;DHT22;28407;51.830;5.684;2023-04-06T12:34:52;9.80;71.50
42755;DHT22;28407;51.830;5.684;2023-04-06T12:36:53;9.80;71.70
42755;DHT22;28407;51.830;5.684;2023-04-06T12:38:53;9.80;71.70
42755;DHT22;28407;51.830;5.684;2023-04-06T12:40:54;9.80;71.80
42755;DHT22;28407;51.830;5.684;2023-04-06T12:42:54;9.80;72.00
42755;DHT22;28407;51.830;5.684;2023-04-06T12:44:55;9.80;72.10
42755;DHT22;28407;51.830;5.684;2023-04-06T12:46:56;9.80;72.30
42755;DHT22;28407;51.830;5.684;2023-04-06T12:48:57;9.80;72.50
42755;DHT22;28407;51.830;5.684;2023-04-06T12:51:01;9.80;72.80
42755;DHT22;28407;51.830;5.684;2023-04-06T12:53:01;9.80;73.10
42755;DHT22;28407;51.830;5.684;2023-04-06T12:55:02;9.80;73.00
42755;DHT22;28407;51.830;5.684;2023-04-06T12:57:03;9.80;73.00
42755;DHT22;28407;51.830;5.684;2023-04-06T12:59:04;9.80;73.00
42755;DHT22;28407;51.830;5.684;2023-04-06T13:01:06;9.90;73.20
42755;DHT22;28407;51.830;5.684;2023-04-06T13:03:08;9.80;73.20
42755;DHT22;28407;51.830;5.684;2023-04-06T13:05:08;9.80;73.40
42755;DHT22;28407;51.830;5.684;2023-04-06T13:07:09;9.80;73.60
42755;DHT22;28407;51.830;5.684;2023-04-06T13:09:10;9.80;73.60